createdAt,value
2022-12-04T00:01:29.112Z,100487.75
2022-12-04T00:04:01.255Z,100545.16
2022-12-04T00:06:30.086Z,100537.34
2022-12-04T00:08:58.001Z,100465.72
2022-12-04T00:11:30.641Z,100545.66
2022-12-04T00:14:06.189Z,100540.09
2022-12-04T00:16:36.100Z,100545.81
2022-12-04T00:19:05.469Z,100543.03
2022-12-04T00:21:33.531Z,100498.13
2022-12-04T00:24:02.044Z,100542.44
2022-12-04T00:26:31.365Z,100506.19
2022-12-04T00:28:59.827Z,100510.47
2022-12-04T00:31:31.494Z,100551.53
2022-12-04T00:34:00.842Z,100509.84
2022-12-04T00:36:30.626Z,100508.88
2022-12-04T00:39:01.041Z,100553.81
2022-12-04T00:41:34.047Z,100514.97
2022-12-04T00:44:05.139Z,100555.13
2022-12-04T00:46:33.063Z,100395.28
2022-12-04T00:49:02.797Z,100508.94
2022-12-04T00:51:31.407Z,100526.25
2022-12-04T00:54:02.577Z,100557.19
2022-12-04T00:56:30.703Z,100540.75
2022-12-04T00:59:01.484Z,100540.78
2022-12-04T01:01:31.024Z,100478.47
2022-12-04T01:03:59.099Z,100547.56
2022-12-04T01:06:33.921Z,100495.19
2022-12-04T01:09:05.442Z,100538.91
2022-12-04T01:11:38.268Z,100555.13
2022-12-04T01:14:06.407Z,100537.50
2022-12-04T01:16:38.095Z,100478.47
2022-12-04T01:19:12.356Z,100565.81
2022-12-04T01:21:41.371Z,100559.75
2022-12-04T01:24:09.877Z,100547.69
2022-12-04T01:26:38.263Z,100545.94
2022-12-04T01:29:06.661Z,100541.78
2022-12-04T01:31:34.901Z,100554.34
2022-12-04T01:34:03.123Z,100515.13
2022-12-04T01:36:31.433Z,100537.94
2022-12-04T01:38:59.518Z,100521.72
2022-12-04T01:41:30.972Z,100514.19
2022-12-04T01:44:09.553Z,100546.22
2022-12-04T01:46:38.569Z,100545.41
2022-12-04T01:49:14.107Z,100533.44
2022-12-04T01:51:49.015Z,100428.19
2022-12-04T01:54:36.610Z,100529.63
2022-12-04T01:57:17.477Z,100521.69
2022-12-04T01:59:53.860Z,100520.53
2022-12-04T02:02:40.327Z,100522.44
2022-12-04T02:05:13.326Z,100520.94
2022-12-04T02:07:43.589Z,100462.69
2022-12-04T02:10:12.651Z,100504.13
2022-12-04T02:13:15.777Z,100518.81
2022-12-04T02:16:18.307Z,100512.22
2022-12-04T02:19:05.739Z,100516.31
2022-12-04T02:21:40.587Z,100488.34
2022-12-04T02:24:19.386Z,100514.56
2022-12-04T02:27:03.915Z,100515.78
2022-12-04T02:29:57.813Z,100478.13
2022-12-04T02:32:33.452Z,100520.75
2022-12-04T02:35:36.187Z,100479.69
2022-12-04T02:38:14.524Z,100514.50
2022-12-04T02:40:48.480Z,100517.00
2022-12-04T02:43:34.063Z,100475.25
2022-12-04T02:46:21.253Z,100518.81
2022-12-04T02:48:53.541Z,100480.69
2022-12-04T02:51:26.056Z,100515.00
2022-12-04T02:54:00.748Z,100526.31
2022-12-04T02:56:37.125Z,100464.84
2022-12-04T02:59:20.541Z,100514.31
2022-12-04T03:01:55.906Z,100496.28
2022-12-04T03:04:30.762Z,100497.31
2022-12-04T03:07:12.379Z,100433.47
2022-12-04T03:10:09.409Z,100530.09
2022-12-04T03:12:49.177Z,100519.63
2022-12-04T03:15:34.423Z,100366.47
2022-12-04T03:18:16.766Z,100467.75
2022-12-04T03:20:50.177Z,100510.47
2022-12-04T03:23:31.505Z,100525.06
2022-12-04T03:26:15.861Z,100467.75
2022-12-04T03:28:46.883Z,100511.88
2022-12-04T03:31:19.470Z,100514.56
2022-12-04T03:33:48.790Z,100505.41
2022-12-04T03:36:31.258Z,100512.97
2022-12-04T03:39:28.980Z,100514.44
2022-12-04T03:42:06.128Z,100505.66
2022-12-04T03:44:48.749Z,100523.31
2022-12-04T03:47:51.530Z,100519.81
2022-12-04T03:50:25.732Z,100511.03
2022-12-04T03:53:22.660Z,100463.19
2022-12-04T03:56:22.264Z,100483.72
2022-12-04T03:59:00.562Z,100470.09
2022-12-04T04:01:36.434Z,100468.84
2022-12-04T04:04:07.685Z,100473.56
2022-12-04T04:06:45.543Z,100478.88
2022-12-04T04:09:19.585Z,100512.91
2022-12-04T04:12:09.929Z,100513.94
2022-12-04T04:15:10.553Z,100538.00
2022-12-04T04:18:08.301Z,100521.56
2022-12-04T04:21:08.774Z,100497.94
2022-12-04T04:24:03.808Z,100498.19
2022-12-04T04:26:42.260Z,100506.19
2022-12-04T04:29:10.815Z,100535.19
2022-12-04T04:32:07.584Z,100535.28
2022-12-04T04:35:22.133Z,100531.22
2022-12-04T04:38:08.349Z,100524.97
2022-12-04T04:40:52.158Z,100529.16
2022-12-04T04:43:47.196Z,100476.97
2022-12-04T04:46:23.860Z,100519.56
2022-12-04T04:48:57.001Z,100488.06
2022-12-04T04:51:28.516Z,100516.81
2022-12-04T04:54:00.769Z,100526.50
2022-12-04T04:56:29.111Z,100445.47
2022-12-04T04:58:57.372Z,100511.38
2022-12-04T05:01:28.624Z,100481.41
2022-12-04T05:03:57.155Z,100527.59
2022-12-04T05:06:25.018Z,100456.38
2022-12-04T05:08:52.911Z,100484.59
2022-12-04T05:11:21.174Z,100518.69
2022-12-04T05:13:49.106Z,100511.88
2022-12-04T05:16:17.663Z,100490.00
2022-12-04T05:19:05.913Z,100461.69
2022-12-04T05:21:34.623Z,100517.94
2022-12-04T05:24:02.817Z,100468.25
2022-12-04T05:26:30.957Z,100494.59
2022-12-04T05:28:59.301Z,100483.34
2022-12-04T05:31:27.443Z,100514.44
2022-12-04T05:33:57.149Z,100517.88
2022-12-04T05:36:27.348Z,100523.25
2022-12-04T05:38:55.610Z,100521.09
2022-12-04T05:41:24.664Z,100478.75
2022-12-04T05:43:52.894Z,100486.34
2022-12-04T05:46:21.332Z,100534.53
2022-12-04T05:48:51.701Z,100479.69
2022-12-04T05:51:19.674Z,100522.13
2022-12-04T05:53:47.690Z,100510.53
2022-12-04T05:56:15.664Z,100528.56
2022-12-04T05:58:43.481Z,100468.16
2022-12-04T06:01:19.856Z,100547.75
2022-12-04T06:03:47.933Z,100440.06
2022-12-04T06:06:23.519Z,100544.03
2022-12-04T06:08:53.918Z,100526.75
2022-12-04T06:11:27.717Z,100537.03
2022-12-04T06:13:56.839Z,100529.75
2022-12-04T06:16:32.319Z,100551.59
2022-12-04T06:19:05.331Z,100546.47
2022-12-04T06:21:36.261Z,100485.06
2022-12-04T06:24:05.458Z,100548.28
2022-12-04T06:26:33.627Z,100508.13
2022-12-04T06:29:02.112Z,100543.91
2022-12-04T06:31:33.724Z,100545.53
2022-12-04T06:34:02.143Z,100543.78
2022-12-04T06:36:30.726Z,100506.38
2022-12-04T06:38:58.790Z,100546.34
2022-12-04T06:41:28.444Z,100547.41
2022-12-04T06:43:57.774Z,100548.91
2022-12-04T06:46:35.057Z,100550.78
2022-12-04T06:49:03.643Z,100537.75
2022-12-04T06:51:40.104Z,100553.19
2022-12-04T06:54:09.507Z,100554.09
2022-12-04T06:56:38.036Z,100523.94
2022-12-04T06:59:06.294Z,100545.94
2022-12-04T07:01:35.913Z,100554.72
2022-12-04T07:04:04.722Z,100525.19
2022-12-04T07:06:38.656Z,100517.22
2022-12-04T07:09:13.739Z,100558.25
2022-12-04T07:11:43.838Z,100571.72
2022-12-04T07:14:13.247Z,100549.22
2022-12-04T07:16:42.577Z,100568.50
2022-12-04T07:19:14.391Z,100541.13
2022-12-04T07:21:42.804Z,100562.09
2022-12-04T07:24:16.830Z,100506.66
2022-12-04T07:26:45.405Z,100552.09
2022-12-04T07:29:14.402Z,100567.44
2022-12-04T07:31:44.712Z,100559.66
2022-12-04T07:34:12.752Z,100512.69
2022-12-04T07:36:41.085Z,100555.22
2022-12-04T07:39:10.375Z,100555.88
2022-12-04T07:41:38.477Z,100564.31
2022-12-04T07:44:08.617Z,100567.81
2022-12-04T07:46:36.902Z,100563.50
2022-12-04T07:49:04.841Z,100557.47
2022-12-04T07:51:32.995Z,100487.53
2022-12-04T07:54:03.979Z,100503.63
2022-12-04T07:56:33.577Z,100540.41
2022-12-04T07:59:02.375Z,100547.00
2022-12-04T08:01:31.030Z,100558.38
2022-12-04T08:04:01.214Z,100541.94
2022-12-04T08:06:33.039Z,100563.31
2022-12-04T08:09:06.183Z,100558.16
2022-12-04T08:11:37.964Z,100548.59
2022-12-04T08:14:09.105Z,100557.94
2022-12-04T08:16:37.444Z,100560.41
2022-12-04T08:19:05.786Z,100553.28
2022-12-04T08:21:34.228Z,100549.06
2022-12-04T08:24:03.237Z,100526.16
2022-12-04T08:26:33.893Z,100554.25
2022-12-04T08:29:03.189Z,100524.44
2022-12-04T08:31:33.231Z,100576.66
2022-12-04T08:34:05.103Z,100556.44
2022-12-04T08:36:33.972Z,100530.66
2022-12-04T08:39:02.092Z,100564.22
2022-12-04T08:41:30.594Z,100551.50
2022-12-04T08:43:59.020Z,100503.16
2022-12-04T08:46:30.662Z,100553.88
2022-12-04T08:48:59.081Z,100564.44
2022-12-04T08:51:31.763Z,100559.19
2022-12-04T08:54:07.514Z,100569.25
2022-12-04T08:56:37.692Z,100522.84
2022-12-04T08:59:06.119Z,100436.03
2022-12-04T09:01:34.143Z,100575.16
2022-12-04T09:04:02.685Z,100548.19
2022-12-04T09:06:30.940Z,100562.09
2022-12-04T09:08:59.064Z,100526.06
2022-12-04T09:11:30.972Z,100552.28
2022-12-04T09:14:01.388Z,100558.25
2022-12-04T09:16:32.303Z,100567.16
2022-12-04T09:19:00.351Z,100558.56
2022-12-04T09:21:28.567Z,100523.38
2022-12-04T09:23:57.330Z,100559.41
2022-12-04T09:26:31.874Z,100545.59
2022-12-04T09:29:02.375Z,100538.75
2022-12-04T09:31:31.713Z,100552.53
2022-12-04T09:34:02.236Z,100550.38
2022-12-04T09:36:31.012Z,100553.91
2022-12-04T09:38:59.616Z,100540.72
2022-12-04T09:42:03.884Z,100551.72
2022-12-04T09:44:42.536Z,100538.03
2022-12-04T09:47:29.916Z,100545.16
2022-12-04T09:50:23.052Z,100539.03
2022-12-04T09:53:00.128Z,100531.19
2022-12-04T09:55:38.974Z,100459.63
2022-12-04T09:58:19.424Z,100520.75
2022-12-04T10:00:52.165Z,100530.06
2022-12-04T10:03:25.598Z,100535.25
2022-12-04T10:06:16.708Z,100512.91
2022-12-04T10:08:50.990Z,100510.78
2022-12-04T10:11:52.349Z,100481.94
2022-12-04T10:14:45.958Z,100522.59
2022-12-04T10:17:33.122Z,100421.47
2022-12-04T10:20:27.775Z,100512.03
2022-12-04T10:23:13.950Z,100511.50
2022-12-04T10:25:43.406Z,100497.38
2022-12-04T10:28:43.024Z,100497.09
2022-12-04T10:31:15.179Z,100483.31
2022-12-04T10:33:57.036Z,100460.91
2022-12-04T10:36:32.104Z,100484.84
2022-12-04T10:39:32.068Z,100441.97
2022-12-04T10:42:18.491Z,100488.91
2022-12-04T10:44:49.278Z,100455.34
2022-12-04T10:47:17.662Z,100447.63
2022-12-04T10:49:46.843Z,100441.38
2022-12-04T10:52:15.012Z,100428.53
2022-12-04T10:55:02.281Z,100478.16
2022-12-04T10:57:45.588Z,100458.63
2022-12-04T11:00:35.265Z,100445.63
2022-12-04T11:03:22.583Z,100458.28
2022-12-04T11:05:57.779Z,100458.22
2022-12-04T11:08:41.160Z,100365.22
2022-12-04T11:11:14.947Z,100456.19
2022-12-04T11:13:44.200Z,100362.31
2022-12-04T11:16:44.933Z,100367.03
2022-12-04T11:19:36.476Z,100446.91
2022-12-04T11:22:18.037Z,100434.09
2022-12-04T11:24:57.746Z,100343.03
2022-12-04T11:27:35.449Z,100407.47
2022-12-04T11:30:20.527Z,100444.53
2022-12-04T11:32:49.020Z,100442.75
2022-12-04T11:35:28.790Z,100420.41
2022-12-04T11:38:10.413Z,100429.50
2022-12-04T11:40:38.742Z,100419.66
2022-12-04T11:43:21.049Z,100417.59
2022-12-04T11:46:04.690Z,100435.06
2022-12-04T11:48:46.092Z,100437.59
2022-12-04T11:51:29.352Z,100419.41
2022-12-04T11:54:15.259Z,100429.78
2022-12-04T11:57:09.111Z,100428.84
2022-12-04T12:00:02.690Z,100389.88
2022-12-04T12:03:27.711Z,100437.38
2022-12-04T12:06:21.005Z,100434.91
2022-12-04T12:09:06.797Z,100435.53
2022-12-04T12:12:10.440Z,100434.50
2022-12-04T12:15:17.081Z,100443.13
2022-12-04T12:18:16.457Z,100402.84
2022-12-04T12:21:19.556Z,100441.19
2022-12-04T12:24:20.315Z,100439.69
2022-12-04T12:27:17.857Z,100415.63
2022-12-04T12:30:19.430Z,100431.75
2022-12-04T12:33:25.273Z,100389.13
2022-12-04T12:36:05.856Z,100432.00
2022-12-04T12:38:57.994Z,100416.47
2022-12-04T12:41:52.573Z,100413.28
2022-12-04T12:44:46.852Z,100413.13
2022-12-04T12:47:23.538Z,100321.22
2022-12-04T12:50:04.249Z,100402.00
2022-12-04T12:52:58.794Z,100398.78
2022-12-04T12:55:44.941Z,100284.91
2022-12-04T12:58:29.600Z,100370.16
2022-12-04T13:01:38.695Z,100402.25
2022-12-04T13:08:11.944Z,100404.63
2022-12-04T13:11:00.984Z,100414.53
2022-12-04T13:14:00.049Z,100246.25
2022-12-04T13:16:58.177Z,100378.66
2022-12-04T13:19:53.040Z,100333.03
2022-12-04T13:23:11.144Z,100339.97
2022-12-04T13:26:21.683Z,100390.00
2022-12-04T13:29:13.877Z,100403.75
2022-12-04T13:31:59.281Z,100289.56
2022-12-04T13:38:41.741Z,100259.34
2022-12-04T13:41:18.925Z,100211.22
2022-12-04T13:44:06.918Z,100310.88
2022-12-04T13:46:49.894Z,100387.72
2022-12-04T13:49:17.980Z,100378.13
2022-12-04T13:51:48.285Z,100363.09
2022-12-04T13:54:16.287Z,100383.53
2022-12-04T13:56:51.631Z,100379.91
2022-12-04T13:59:28.515Z,100382.53
2022-12-04T14:02:37.928Z,100360.97
2022-12-04T14:05:13.398Z,100349.00
2022-12-04T14:08:08.084Z,100379.53
2022-12-04T14:10:40.442Z,100383.47
2022-12-04T14:13:28.288Z,100392.09
2022-12-04T14:16:45.089Z,100375.25
2022-12-04T14:19:34.879Z,100370.75
2022-12-04T14:22:06.873Z,100403.44
2022-12-04T14:24:40.486Z,100381.94
2022-12-04T14:27:42.959Z,100406.75
2022-12-04T14:30:25.043Z,100418.09
2022-12-04T14:33:30.079Z,100410.91
2022-12-04T14:36:18.288Z,100411.19
2022-12-04T14:38:51.268Z,100408.69
2022-12-04T14:41:30.110Z,100387.56
2022-12-04T14:44:00.750Z,100361.00
2022-12-04T14:47:00.260Z,100393.72
2022-12-04T14:49:46.703Z,100367.41
2022-12-04T14:52:41.701Z,100399.09
2022-12-04T14:56:08.569Z,100404.50
2022-12-04T14:58:39.223Z,100259.78
2022-12-04T15:01:29.652Z,100407.91
2022-12-04T15:04:22.809Z,100405.28
2022-12-04T15:06:59.682Z,100406.19
2022-12-04T15:09:47.808Z,100397.41
2022-12-04T15:12:34.393Z,100384.84
2022-12-04T15:15:19.795Z,100404.50
2022-12-04T15:18:10.099Z,100370.81
2022-12-04T15:20:59.359Z,100403.44
2022-12-04T15:23:41.739Z,100402.66
2022-12-04T15:26:20.792Z,100263.94
2022-12-04T15:29:01.438Z,100404.34
2022-12-04T15:31:43.922Z,100406.91
2022-12-04T15:34:18.217Z,100380.94
2022-12-04T15:37:08.123Z,100407.91
2022-12-04T15:39:38.201Z,100412.34
2022-12-04T15:42:22.615Z,100376.63
2022-12-04T15:45:04.970Z,100414.03
2022-12-04T15:48:01.412Z,100420.06
2022-12-04T15:50:31.611Z,100420.06
2022-12-04T15:53:06.795Z,100406.31
2022-12-04T15:55:53.271Z,100415.13
2022-12-04T15:58:42.139Z,100418.78
2022-12-04T16:01:15.800Z,100333.41
2022-12-04T16:03:44.169Z,100417.84
2022-12-04T16:06:28.642Z,100404.69
2022-12-04T16:09:22.289Z,100400.16
2022-12-04T16:12:22.930Z,100390.88
2022-12-04T16:14:56.332Z,100413.66
2022-12-04T16:17:34.249Z,100351.81
2022-12-04T16:20:10.861Z,100364.66
2022-12-04T16:22:44.456Z,100319.31
2022-12-04T16:25:18.056Z,100411.19
2022-12-04T16:27:58.547Z,100420.94
2022-12-04T16:30:39.889Z,100304.84
2022-12-04T16:33:31.222Z,100312.78
2022-12-04T16:36:36.449Z,100291.34
2022-12-04T16:39:41.038Z,100324.84
2022-12-04T16:42:28.174Z,100254.38
2022-12-04T16:45:38.031Z,100346.75
2022-12-04T16:48:10.531Z,100264.13
2022-12-04T16:50:45.003Z,100277.81
2022-12-04T16:53:29.463Z,100299.91
2022-12-04T16:56:11.093Z,100303.16
2022-12-04T16:58:45.479Z,100395.69
2022-12-04T17:01:45.912Z,100236.09
2022-12-04T17:04:23.273Z,100303.09
2022-12-04T17:07:18.316Z,100304.19
2022-12-04T17:10:07.761Z,100221.47
2022-12-04T17:12:51.259Z,100382.88
2022-12-04T17:15:48.509Z,100380.97
2022-12-04T17:18:21.578Z,100370.28
2022-12-04T17:20:50.875Z,100375.09
2022-12-04T17:23:18.924Z,100372.41
2022-12-04T17:25:49.247Z,100388.56
2022-12-04T17:28:19.053Z,100340.09
2022-12-04T17:30:47.525Z,100391.81
2022-12-04T17:33:16.939Z,100395.16
2022-12-04T17:35:45.202Z,100389.34
2022-12-04T17:38:13.525Z,100387.19
2022-12-04T17:40:41.793Z,100385.09
2022-12-04T17:43:10.080Z,100340.34
2022-12-04T17:45:43.769Z,100239.38
2022-12-04T17:48:11.934Z,100335.44
2022-12-04T17:50:40.179Z,100371.03
2022-12-04T17:53:08.266Z,100336.19
2022-12-04T17:55:36.797Z,100364.00
2022-12-04T17:58:05.032Z,100322.44
2022-12-04T18:00:43.969Z,100319.19
2022-12-04T18:03:27.237Z,100392.69
2022-12-04T18:06:19.979Z,100312.19
2022-12-04T18:09:04.016Z,100261.81
2022-12-04T18:11:43.911Z,100247.50
2022-12-04T18:14:25.752Z,100259.78
2022-12-04T18:17:01.627Z,100258.75
2022-12-04T18:19:41.820Z,100258.16
2022-12-04T18:22:30.497Z,100297.94
2022-12-04T18:25:04.604Z,100274.09
2022-12-04T18:27:42.050Z,100303.78
2022-12-04T18:30:13.612Z,100327.31
2022-12-04T18:32:44.480Z,100375.41
2022-12-04T18:35:15.245Z,100342.81
2022-12-04T18:37:43.290Z,100394.97
2022-12-04T18:40:12.105Z,100403.44
2022-12-04T18:42:40.187Z,100392.50
2022-12-04T18:45:09.236Z,100386.00
2022-12-04T18:47:37.254Z,100384.25
2022-12-04T18:50:06.221Z,100397.22
2022-12-04T18:52:37.864Z,100389.16
2022-12-04T18:55:16.884Z,100377.22
2022-12-04T18:57:45.218Z,100372.84
2022-12-04T19:00:22.924Z,100338.97
2022-12-04T19:02:56.891Z,100335.53
2022-12-04T19:05:25.688Z,100390.16
2022-12-04T19:07:53.984Z,100387.84
2022-12-04T19:10:22.420Z,100367.13
2022-12-04T19:12:54.297Z,100377.03
2022-12-04T19:15:25.166Z,100228.03
2022-12-04T19:18:01.550Z,100389.88
2022-12-04T19:20:35.513Z,100396.00
2022-12-04T19:23:07.099Z,100367.06
2022-12-04T19:25:35.572Z,100363.91
2022-12-04T19:28:05.779Z,100401.59
2022-12-04T19:30:36.418Z,100382.66
2022-12-04T19:33:04.312Z,100389.94
2022-12-04T19:35:32.400Z,100399.81
2022-12-04T19:38:00.919Z,100378.91
2022-12-04T19:40:29.219Z,100303.19
2022-12-04T19:43:02.944Z,100345.78
2022-12-04T19:45:31.399Z,100391.03
2022-12-04T19:47:59.516Z,100393.66
2022-12-04T19:50:28.315Z,100339.91
2022-12-04T19:52:58.689Z,100413.59
2022-12-04T19:55:26.932Z,100386.03
2022-12-04T19:57:57.887Z,100418.19
2022-12-04T20:00:26.582Z,100413.03
2022-12-04T20:02:54.750Z,100378.69
2022-12-04T20:05:26.025Z,100393.84
2022-12-04T20:10:28.259Z,100365.59
2022-12-04T20:12:58.281Z,100392.16
2022-12-04T20:15:26.404Z,100404.59
2022-12-04T20:17:56.964Z,100373.97
2022-12-04T20:20:24.992Z,100372.94
2022-12-04T20:22:53.239Z,100408.06
2022-12-04T20:25:22.235Z,100399.56
2022-12-04T20:27:51.879Z,100412.66
2022-12-04T20:30:19.917Z,100397.88
2022-12-04T20:32:52.227Z,100383.34
2022-12-04T20:35:20.466Z,100394.25
2022-12-04T20:37:51.230Z,100317.34
2022-12-04T20:40:19.404Z,100382.19
2022-12-04T20:42:49.641Z,100390.75
2022-12-04T20:45:18.117Z,100374.97
2022-12-04T20:47:50.779Z,100373.22
2022-12-04T20:50:19.501Z,100367.38
2022-12-04T20:52:50.738Z,100218.19
2022-12-04T20:55:19.012Z,100358.59
2022-12-04T20:57:47.672Z,100371.25
2022-12-04T21:00:16.544Z,100345.13
2022-12-04T21:02:47.540Z,100370.53
2022-12-04T21:05:18.062Z,100355.47
2022-12-04T21:07:46.386Z,100364.78
2022-12-04T21:10:14.464Z,100365.94
2022-12-04T21:13:03.000Z,100361.22
2022-12-04T21:15:49.661Z,100242.75
2022-12-04T21:18:17.988Z,100366.47
2022-12-04T21:20:45.998Z,100306.38
2022-12-04T21:23:14.766Z,100355.47
2022-12-04T21:25:46.269Z,100231.19
2022-12-04T21:28:14.354Z,100350.34
2022-12-04T21:30:44.505Z,100335.97
2022-12-04T21:33:45.526Z,100260.81
2022-12-04T21:37:03.248Z,100228.28
2022-12-04T21:39:35.099Z,100360.13
2022-12-04T21:42:31.381Z,100227.78
2022-12-04T21:45:15.198Z,100236.25
2022-12-04T21:47:53.979Z,100231.78
2022-12-04T21:50:26.419Z,100275.97
2022-12-04T21:53:06.398Z,100213.69
2022-12-04T21:55:54.464Z,100222.47
2022-12-04T21:58:31.052Z,100147.41
2022-12-04T22:01:22.338Z,100255.63
2022-12-04T22:04:06.334Z,100328.50
2022-12-04T22:06:50.884Z,100153.94
2022-12-04T22:09:27.534Z,100183.22
2022-12-04T22:12:47.964Z,100200.50
2022-12-04T22:15:14.693Z,100228.34
2022-12-04T22:17:54.968Z,100335.56
2022-12-04T22:20:29.043Z,100196.19
2022-12-04T22:23:08.092Z,100218.44
2022-12-04T22:25:47.143Z,100162.69
2022-12-04T22:28:28.048Z,100243.94
2022-12-04T22:31:07.878Z,100243.78
2022-12-04T22:33:44.863Z,100208.53
2022-12-04T22:36:20.174Z,100292.47
2022-12-04T22:39:10.941Z,100319.63
2022-12-04T22:41:56.347Z,100300.63
2022-12-04T22:44:34.718Z,100284.13
2022-12-04T22:47:04.876Z,100144.88
2022-12-04T22:49:48.008Z,100267.19
2022-12-04T22:52:47.387Z,100316.78
2022-12-04T22:55:26.411Z,100189.28
2022-12-04T22:58:04.924Z,100164.06
2022-12-04T23:00:42.265Z,100155.69
2022-12-04T23:03:22.167Z,100143.06
2022-12-04T23:06:05.189Z,100206.66
2022-12-04T23:08:35.709Z,100193.19
2022-12-04T23:11:26.125Z,100254.75
2022-12-04T23:14:06.888Z,100208.31
2022-12-04T23:16:43.097Z,100310.09
2022-12-04T23:19:16.861Z,100280.34
2022-12-04T23:21:49.642Z,100283.25
2022-12-04T23:24:21.482Z,100281.34
2022-12-04T23:26:52.819Z,100299.81
2022-12-04T23:29:51.348Z,100313.72
2022-12-04T23:32:09.190Z,100232.13
2022-12-04T23:34:37.187Z,100308.66
2022-12-04T23:37:10.038Z,100324.91
2022-12-04T23:39:38.282Z,100242.78
2022-12-04T23:42:06.340Z,100308.59
2022-12-04T23:44:34.110Z,100247.34
2022-12-04T23:47:02.369Z,100324.19
2022-12-04T23:49:30.575Z,100314.75
2022-12-04T23:51:58.626Z,100247.44
2022-12-04T23:54:36.406Z,100247.34
2022-12-04T23:57:04.808Z,100299.47
2022-12-04T23:59:35.839Z,100294.00
